createdAt,value
2016-11-30T00:00:35.519Z,8
2016-11-30T00:01:49.338Z,8
2016-11-30T00:03:03.624Z,8
2016-11-30T00:04:18.223Z,8
2016-11-30T00:05:32.577Z,8
2016-11-30T00:06:47.050Z,8
2016-11-30T00:08:00.914Z,8
2016-11-30T00:09:15.083Z,7
2016-11-30T00:10:29.751Z,7
2016-11-30T00:11:44.061Z,7
2016-11-30T00:12:58.908Z,7
2016-11-30T00:14:12.652Z,7
2016-11-30T00:15:27.149Z,7
2016-11-30T00:16:41.417Z,7
2016-11-30T00:17:55.353Z,7
2016-11-30T00:19:09.432Z,7
2016-11-30T00:20:23.927Z,7
2016-11-30T00:21:37.930Z,7
2016-11-30T00:22:52.101Z,7
2016-11-30T00:24:06.149Z,7
2016-11-30T00:25:20.398Z,7
2016-11-30T00:26:34.853Z,7
2016-11-30T00:27:48.683Z,7
2016-11-30T00:29:02.420Z,7
2016-11-30T00:30:17.162Z,7
2016-11-30T00:31:31.787Z,7
2016-11-30T00:32:45.767Z,7
2016-11-30T00:33:59.765Z,7
2016-11-30T00:35:14.169Z,7
2016-11-30T00:36:28.422Z,7
2016-11-30T00:37:42.991Z,7
2016-11-30T00:38:57.112Z,7
2016-11-30T00:40:11.064Z,7
2016-11-30T00:41:25.158Z,7
2016-11-30T00:42:39.557Z,7
2016-11-30T00:43:53.693Z,7
2016-11-30T00:45:07.457Z,7
2016-11-30T00:46:21.669Z,7
2016-11-30T00:47:38.011Z,7
2016-11-30T00:48:52.663Z,7
2016-11-30T00:50:07.218Z,7
2016-11-30T00:51:21.542Z,7
2016-11-30T00:52:35.585Z,7
2016-11-30T00:53:49.553Z,7
2016-11-30T00:55:04.173Z,7
2016-11-30T00:56:19.082Z,7
2016-11-30T00:57:33.297Z,7
2016-11-30T00:58:47.149Z,7
2016-11-30T01:00:01.168Z,7
2016-11-30T01:01:15.251Z,7
2016-11-30T01:02:30.163Z,7
2016-11-30T01:03:43.848Z,7
2016-11-30T01:04:58.118Z,7
2016-11-30T01:06:12.189Z,7
2016-11-30T01:07:26.419Z,7
2016-11-30T01:08:41.475Z,7
2016-11-30T01:09:56.068Z,7
2016-11-30T01:11:09.868Z,7
2016-11-30T01:12:23.786Z,7
2016-11-30T01:13:37.803Z,7
2016-11-30T01:15:07.387Z,7
2016-11-30T01:16:21.246Z,7
2016-11-30T01:17:34.995Z,7
2016-11-30T01:18:49.837Z,7
2016-11-30T01:20:03.699Z,7
2016-11-30T01:21:18.251Z,7
2016-11-30T01:22:32.793Z,7
2016-11-30T01:23:46.630Z,7
2016-11-30T01:25:00.570Z,7
2016-11-30T01:26:14.538Z,7
2016-11-30T01:29:12.947Z,7
2016-11-30T01:30:26.706Z,7
2016-11-30T01:32:25.039Z,6
2016-11-30T01:33:39.080Z,6
2016-11-30T01:34:53.813Z,6
2016-11-30T01:36:07.929Z,6
2016-11-30T01:37:22.152Z,6
2016-11-30T01:38:35.920Z,6
2016-11-30T01:39:50.324Z,6
2016-11-30T01:41:04.153Z,6
2016-11-30T01:42:18.715Z,6
2016-11-30T01:43:32.550Z,6
2016-11-30T01:44:46.720Z,6
2016-11-30T01:46:01.030Z,6
2016-11-30T01:47:15.037Z,6
2016-11-30T01:48:29.999Z,6
2016-11-30T01:49:44.368Z,6
2016-11-30T01:50:58.163Z,6
2016-11-30T01:52:12.193Z,6
2016-11-30T01:53:26.211Z,6
2016-11-30T01:54:40.850Z,6
2016-11-30T01:55:55.351Z,6
2016-11-30T01:57:09.211Z,6
2016-11-30T01:58:23.375Z,6
2016-11-30T01:59:37.384Z,6
2016-11-30T02:00:51.565Z,6
2016-11-30T02:02:20.675Z,6
2016-11-30T02:03:35.417Z,6
2016-11-30T02:04:49.832Z,6
2016-11-30T02:06:06.267Z,6
2016-11-30T02:07:20.413Z,6
2016-11-30T02:08:34.769Z,6
2016-11-30T02:09:49.033Z,6
2016-11-30T02:11:03.131Z,6
2016-11-30T02:12:17.011Z,6
2016-11-30T02:13:30.937Z,6
2016-11-30T02:14:45.288Z,6
2016-11-30T02:15:59.590Z,6
2016-11-30T02:17:13.631Z,6
2016-11-30T02:18:27.641Z,6
2016-11-30T02:19:41.675Z,6
2016-11-30T02:20:56.163Z,6
2016-11-30T02:22:10.443Z,6
2016-11-30T02:23:24.822Z,6
2016-11-30T02:24:38.830Z,6
2016-11-30T02:25:53.241Z,6
2016-11-30T02:27:07.143Z,6
2016-11-30T02:28:36.615Z,6
2016-11-30T02:29:50.365Z,6
2016-11-30T02:31:04.425Z,6
2016-11-30T02:32:18.466Z,6
2016-11-30T02:33:32.824Z,6
2016-11-30T02:34:47.184Z,6
2016-11-30T02:36:01.243Z,5
2016-11-30T02:37:15.334Z,5
2016-11-30T02:38:29.335Z,5
2016-11-30T02:39:43.904Z,5
2016-11-30T02:40:58.468Z,5
2016-11-30T02:42:12.991Z,5
2016-11-30T02:43:26.881Z,6
2016-11-30T02:44:41.056Z,6
2016-11-30T02:45:55.523Z,6
2016-11-30T02:47:09.990Z,6
2016-11-30T02:48:24.049Z,6
2016-11-30T02:49:38.150Z,6
2016-11-30T02:50:52.443Z,6
2016-11-30T02:52:06.916Z,6
2016-11-30T02:53:21.264Z,6
2016-11-30T02:54:35.267Z,6
2016-11-30T02:55:49.409Z,5
2016-11-30T02:57:03.336Z,5
2016-11-30T02:58:17.644Z,5
2016-11-30T02:59:31.883Z,5
2016-11-30T03:00:45.862Z,5
2016-11-30T03:05:12.975Z,6
2016-11-30T03:06:27.287Z,6
2016-11-30T03:07:41.355Z,6
2016-11-30T03:08:55.418Z,6
2016-11-30T03:10:09.484Z,6
2016-11-30T03:11:23.877Z,6
2016-11-30T03:12:38.382Z,6
2016-11-30T03:13:52.784Z,6
2016-11-30T03:15:07.244Z,6
2016-11-30T03:16:21.376Z,6
2016-11-30T03:17:35.934Z,6
2016-11-30T03:18:50.195Z,6
2016-11-30T03:20:04.363Z,6
2016-11-30T03:21:33.276Z,6
2016-11-30T03:22:47.496Z,6
2016-11-30T03:24:02.403Z,6
2016-11-30T03:25:18.616Z,6
2016-11-30T03:26:32.744Z,6
2016-11-30T03:29:31.194Z,6
2016-11-30T03:30:45.458Z,6
2016-11-30T03:32:14.362Z,6
2016-11-30T03:33:28.130Z,6
2016-11-30T03:34:42.424Z,6
2016-11-30T03:35:56.790Z,6
2016-11-30T03:37:10.895Z,6
2016-11-30T03:38:25.001Z,5
2016-11-30T03:39:39.085Z,5
2016-11-30T03:40:53.584Z,5
2016-11-30T03:42:07.323Z,5
2016-11-30T03:43:21.738Z,5
2016-11-30T03:44:35.684Z,5
2016-11-30T03:45:50.331Z,5
2016-11-30T03:47:04.873Z,5
2016-11-30T03:48:18.739Z,5
2016-11-30T03:49:33.308Z,5
2016-11-30T03:50:47.319Z,5
2016-11-30T03:52:01.438Z,5
2016-11-30T03:53:15.779Z,5
2016-11-30T03:54:29.991Z,5
2016-11-30T03:55:44.507Z,5
2016-11-30T03:56:58.555Z,5
2016-11-30T03:58:12.869Z,5
2016-11-30T03:59:27.036Z,5
2016-11-30T04:00:40.971Z,5
2016-11-30T04:01:55.323Z,5
2016-11-30T04:03:09.183Z,5
2016-11-30T04:04:23.040Z,5
2016-11-30T04:05:37.185Z,5
2016-11-30T04:06:51.240Z,5
2016-11-30T04:08:05.716Z,5
2016-11-30T04:09:19.679Z,5
2016-11-30T04:10:40.198Z,5
2016-11-30T04:12:00.803Z,5
2016-11-30T04:13:25.877Z,5
2016-11-30T04:14:49.968Z,5
2016-11-30T04:16:10.406Z,5
2016-11-30T04:17:32.314Z,5
2016-11-30T04:18:54.104Z,5
2016-11-30T04:20:16.239Z,5
2016-11-30T04:21:38.200Z,5
2016-11-30T04:22:56.774Z,5
2016-11-30T04:24:10.844Z,5
2016-11-30T04:25:25.207Z,5
2016-11-30T04:26:39.173Z,5
2016-11-30T04:28:07.798Z,5
2016-11-30T04:29:22.239Z,5
2016-11-30T04:30:36.243Z,5
2016-11-30T04:31:49.986Z,5
2016-11-30T04:33:04.075Z,5
2016-11-30T04:34:18.080Z,5
2016-11-30T04:35:32.097Z,5
2016-11-30T04:36:46.548Z,5
2016-11-30T04:38:00.266Z,5
2016-11-30T04:39:14.546Z,5
2016-11-30T04:40:28.503Z,5
2016-11-30T04:41:42.676Z,5
2016-11-30T04:42:57.228Z,5
2016-11-30T04:44:13.646Z,5
2016-11-30T04:45:27.799Z,5
2016-11-30T04:46:42.268Z,5
2016-11-30T04:47:56.334Z,5
2016-11-30T04:49:10.850Z,5
2016-11-30T04:50:25.030Z,5
2016-11-30T04:51:39.419Z,5
2016-11-30T04:52:53.573Z,5
2016-11-30T04:54:07.976Z,5
2016-11-30T04:55:21.719Z,5
2016-11-30T04:56:36.386Z,5
2016-11-30T04:57:50.706Z,5
2016-11-30T04:59:04.927Z,5
2016-11-30T05:00:19.193Z,5
2016-11-30T05:01:33.556Z,5
2016-11-30T05:02:48.096Z,5
2016-11-30T05:04:02.681Z,4
2016-11-30T05:05:16.693Z,4
2016-11-30T05:06:30.792Z,4
2016-11-30T05:07:44.655Z,4
2016-11-30T05:08:58.415Z,4
2016-11-30T05:10:13.024Z,4
2016-11-30T05:11:27.018Z,4
2016-11-30T05:12:41.461Z,4
2016-11-30T05:13:55.453Z,4
2016-11-30T05:15:09.669Z,4
2016-11-30T05:16:38.401Z,4
2016-11-30T05:17:54.152Z,4
2016-11-30T05:19:10.652Z,4
2016-11-30T05:20:25.285Z,4
2016-11-30T05:21:41.650Z,4
2016-11-30T05:22:55.579Z,4
2016-11-30T05:24:10.090Z,4
2016-11-30T05:25:24.348Z,4
2016-11-30T05:26:39.715Z,4
2016-11-30T05:27:54.024Z,4
2016-11-30T05:29:08.058Z,4
2016-11-30T05:30:22.433Z,4
2016-11-30T05:31:52.804Z,4
2016-11-30T05:33:07.423Z,4
2016-11-30T05:34:21.559Z,4
2016-11-30T05:35:37.065Z,4
2016-11-30T05:36:50.927Z,4
2016-11-30T05:38:05.058Z,4
2016-11-30T05:39:19.680Z,4
2016-11-30T05:40:33.735Z,4
2016-11-30T05:41:48.124Z,4
2016-11-30T05:43:02.195Z,4
2016-11-30T05:44:16.328Z,4
2016-11-30T05:45:31.185Z,4
2016-11-30T05:46:45.693Z,4
2016-11-30T05:48:00.309Z,4
2016-11-30T05:49:14.463Z,4
2016-11-30T05:50:28.872Z,4
2016-11-30T05:51:43.950Z,4
2016-11-30T05:52:57.997Z,4
2016-11-30T05:54:12.783Z,4
2016-11-30T05:55:26.796Z,4
2016-11-30T05:56:40.734Z,4
2016-11-30T05:57:56.226Z,4
2016-11-30T05:59:10.275Z,4
2016-11-30T06:00:24.705Z,4
2016-11-30T06:01:41.304Z,4
2016-11-30T06:02:55.508Z,4
2016-11-30T06:04:10.139Z,4
2016-11-30T06:05:24.518Z,4
2016-11-30T06:06:39.094Z,4
2016-11-30T06:07:53.292Z,4
2016-11-30T06:09:07.658Z,4
2016-11-30T06:10:23.674Z,4
2016-11-30T06:11:39.274Z,4
2016-11-30T06:12:54.119Z,4
2016-11-30T06:14:08.592Z,4
2016-11-30T06:15:23.089Z,4
2016-11-30T06:16:37.270Z,4
2016-11-30T06:17:51.673Z,4
2016-11-30T06:19:06.729Z,4
2016-11-30T06:20:20.851Z,4
2016-11-30T06:23:03.914Z,4
2016-11-30T06:24:18.841Z,4
2016-11-30T06:25:33.093Z,4
2016-11-30T06:26:47.144Z,4
2016-11-30T06:28:01.588Z,4
2016-11-30T06:29:15.830Z,4
2016-11-30T06:30:30.212Z,4
2016-11-30T06:31:45.165Z,4
2016-11-30T06:32:59.630Z,4
2016-11-30T06:34:14.298Z,4
2016-11-30T06:35:28.429Z,4
2016-11-30T06:39:40.714Z,4
2016-11-30T06:40:55.051Z,4
2016-11-30T06:42:09.012Z,4
2016-11-30T06:43:23.286Z,4
2016-11-30T06:44:37.402Z,4
2016-11-30T06:45:51.342Z,4
2016-11-30T06:47:05.883Z,4
2016-11-30T06:48:29.401Z,4
2016-11-30T06:49:44.024Z,4
2016-11-30T06:51:12.594Z,4
2016-11-30T06:53:55.621Z,4
2016-11-30T06:55:09.734Z,4
2016-11-30T06:56:23.707Z,4
2016-11-30T06:57:37.654Z,4
2016-11-30T06:58:51.812Z,4
2016-11-30T07:00:05.768Z,4
2016-11-30T07:01:20.383Z,4
2016-11-30T07:02:34.244Z,4
2016-11-30T07:03:48.158Z,4
2016-11-30T07:05:02.613Z,4
2016-11-30T07:06:16.474Z,4
2016-11-30T07:07:31.292Z,4
2016-11-30T07:08:45.568Z,4
2016-11-30T07:09:59.317Z,4
2016-11-30T07:11:13.572Z,4
2016-11-30T07:12:27.298Z,4
2016-11-30T07:13:41.365Z,4
2016-11-30T07:14:55.500Z,4
2016-11-30T07:16:09.193Z,4
2016-11-30T07:17:23.372Z,4
2016-11-30T07:18:37.172Z,4
2016-11-30T07:19:51.048Z,4
2016-11-30T07:21:07.599Z,4
2016-11-30T07:22:21.842Z,4
2016-11-30T07:23:36.283Z,4
2016-11-30T07:24:50.178Z,4
2016-11-30T07:26:19.280Z,4
2016-11-30T07:27:32.968Z,4
2016-11-30T07:28:47.654Z,4
2016-11-30T07:30:01.754Z,4
2016-11-30T07:31:15.895Z,4
2016-11-30T07:32:29.991Z,4
2016-11-30T07:33:44.069Z,4
2016-11-30T07:34:58.137Z,4
2016-11-30T07:36:12.296Z,4
2016-11-30T07:37:26.199Z,4
2016-11-30T07:38:40.446Z,4
2016-11-30T07:39:54.396Z,4
2016-11-30T07:41:08.551Z,4
2016-11-30T07:42:22.909Z,4
2016-11-30T07:43:36.999Z,4
2016-11-30T07:44:50.856Z,4
2016-11-30T07:46:05.120Z,4
2016-11-30T07:47:19.371Z,4
2016-11-30T07:48:33.114Z,4
2016-11-30T07:49:47.465Z,4
2016-11-30T07:51:02.017Z,4
2016-11-30T07:52:15.924Z,4
2016-11-30T07:53:31.035Z,4
2016-11-30T07:54:45.742Z,4
2016-11-30T07:55:59.875Z,5
2016-11-30T07:57:14.151Z,5
2016-11-30T07:58:28.096Z,5
2016-11-30T07:59:42.411Z,5
2016-11-30T08:00:56.650Z,5
2016-11-30T08:02:10.866Z,5
2016-11-30T08:03:25.079Z,5
2016-11-30T08:04:38.903Z,5
2016-11-30T08:05:53.389Z,5
2016-11-30T08:07:07.296Z,5
2016-11-30T08:08:21.030Z,5
2016-11-30T08:09:34.718Z,5
2016-11-30T08:10:48.544Z,5
2016-11-30T08:12:02.904Z,5
2016-11-30T08:13:16.586Z,5
2016-11-30T08:14:30.271Z,5
2016-11-30T08:15:44.062Z,5
2016-11-30T08:16:57.754Z,5
2016-11-30T08:18:12.055Z,5
2016-11-30T08:19:26.437Z,5
2016-11-30T08:20:40.520Z,5
2016-11-30T08:21:54.234Z,5
2016-11-30T08:23:08.296Z,5
2016-11-30T08:24:22.478Z,5
2016-11-30T08:25:37.353Z,5
2016-11-30T08:26:51.494Z,5
2016-11-30T08:28:05.733Z,5
2016-11-30T08:29:19.641Z,5
2016-11-30T08:30:33.710Z,5
2016-11-30T08:31:47.931Z,5
2016-11-30T08:33:02.148Z,5
2016-11-30T08:34:16.092Z,5
2016-11-30T08:35:30.133Z,5
2016-11-30T08:36:44.460Z,5
2016-11-30T08:38:00.651Z,6
2016-11-30T08:39:14.367Z,6
2016-11-30T08:40:29.111Z,6
2016-11-30T08:41:42.993Z,6
2016-11-30T08:42:56.921Z,6
2016-11-30T08:44:10.826Z,6
2016-11-30T08:45:24.688Z,6
2016-11-30T08:46:38.692Z,6
2016-11-30T08:47:52.985Z,6
2016-11-30T08:49:06.801Z,6
2016-11-30T08:50:20.639Z,6
2016-11-30T08:51:34.477Z,6
2016-11-30T08:52:48.294Z,6
2016-11-30T08:54:02.104Z,6
2016-11-30T08:55:16.740Z,6
2016-11-30T08:56:32.233Z,6
2016-11-30T08:57:46.285Z,7
2016-11-30T08:59:00.295Z,7
2016-11-30T09:00:14.284Z,7
2016-11-30T09:01:28.396Z,7
2016-11-30T09:02:43.992Z,7
2016-11-30T09:03:58.578Z,7
2016-11-30T09:05:12.553Z,7
2016-11-30T09:06:26.365Z,7
2016-11-30T09:07:40.789Z,7
2016-11-30T09:08:55.205Z,7
2016-11-30T09:10:08.968Z,7
2016-11-30T09:11:23.861Z,7
2016-11-30T09:12:52.988Z,7
2016-11-30T09:14:07.338Z,7
2016-11-30T09:15:21.262Z,7
2016-11-30T09:16:35.409Z,7
2016-11-30T09:17:49.784Z,7
2016-11-30T09:19:03.682Z,7
2016-11-30T09:20:18.672Z,7
2016-11-30T09:21:33.630Z,7
2016-11-30T09:22:50.120Z,7
2016-11-30T09:24:20.455Z,7
2016-11-30T09:25:36.654Z,7
2016-11-30T09:26:50.720Z,7
2016-11-30T09:28:05.102Z,7
2016-11-30T09:29:19.309Z,7
2016-11-30T09:30:33.751Z,7
2016-11-30T09:31:47.861Z,8
2016-11-30T09:33:02.125Z,8
2016-11-30T09:34:16.369Z,8
2016-11-30T09:35:30.432Z,8
2016-11-30T09:36:44.432Z,8
2016-11-30T09:37:58.680Z,8
2016-11-30T09:39:12.820Z,8
2016-11-30T09:40:37.835Z,8
2016-11-30T09:42:01.319Z,8
2016-11-30T09:43:39.792Z,8
2016-11-30T09:45:03.645Z,8
2016-11-30T09:46:29.575Z,8
2016-11-30T09:48:06.836Z,8
2016-11-30T09:49:32.200Z,8
2016-11-30T09:50:52.547Z,8
2016-11-30T09:52:18.972Z,8
2016-11-30T09:53:33.183Z,8
2016-11-30T09:54:48.163Z,8
2016-11-30T09:56:03.091Z,8
2016-11-30T09:57:20.257Z,8
2016-11-30T09:58:34.185Z,8
2016-11-30T09:59:48.697Z,8
2016-11-30T10:01:03.506Z,8
2016-11-30T10:02:17.290Z,8
2016-11-30T10:03:31.070Z,8
2016-11-30T10:04:45.062Z,8
2016-11-30T10:05:59.188Z,8
2016-11-30T10:07:13.133Z,8
2016-11-30T10:08:27.185Z,8
2016-11-30T10:09:41.432Z,9
2016-11-30T10:10:55.203Z,9
2016-11-30T10:12:09.328Z,9
2016-11-30T10:13:23.761Z,9
2016-11-30T10:14:37.840Z,9
2016-11-30T10:16:06.715Z,9
2016-11-30T10:17:20.825Z,9
2016-11-30T10:18:35.384Z,9
2016-11-30T10:19:49.363Z,9
2016-11-30T10:21:03.210Z,9
2016-11-30T10:22:17.162Z,9
2016-11-30T10:23:31.079Z,9
2016-11-30T10:24:45.189Z,9
2016-11-30T10:25:59.431Z,9
2016-11-30T10:27:13.395Z,9
2016-11-30T10:28:27.065Z,9
2016-11-30T10:29:41.003Z,9
2016-11-30T10:30:55.215Z,9
2016-11-30T10:32:08.974Z,9
2016-11-30T10:33:23.122Z,9
2016-11-30T10:34:37.232Z,9
2016-11-30T10:35:50.940Z,9
2016-11-30T10:37:04.941Z,9
2016-11-30T10:38:19.271Z,9
2016-11-30T10:39:33.027Z,9
2016-11-30T10:40:47.505Z,9
2016-11-30T10:42:01.261Z,9
2016-11-30T10:43:15.803Z,9
2016-11-30T10:44:29.654Z,9
2016-11-30T10:45:43.766Z,9
2016-11-30T10:46:57.828Z,9
2016-11-30T10:48:11.817Z,9
2016-11-30T10:49:25.795Z,9
2016-11-30T10:50:40.229Z,9
2016-11-30T10:51:53.897Z,9
2016-11-30T10:53:08.108Z,9
2016-11-30T10:54:22.000Z,9
2016-11-30T10:55:36.710Z,9
2016-11-30T10:56:50.413Z,9
2016-11-30T10:58:04.118Z,9
2016-11-30T10:59:18.000Z,9
2016-11-30T11:00:32.248Z,9
2016-11-30T11:01:46.758Z,9
2016-11-30T11:03:00.613Z,9
2016-11-30T11:04:14.695Z,10
2016-11-30T11:05:28.821Z,10
2016-11-30T11:06:42.998Z,10
2016-11-30T11:07:56.998Z,10
2016-11-30T11:09:11.231Z,10
2016-11-30T11:10:25.075Z,10
2016-11-30T11:11:39.093Z,10
2016-11-30T11:12:53.481Z,10
2016-11-30T11:14:10.984Z,10
2016-11-30T11:15:25.431Z,10
2016-11-30T11:16:39.241Z,10
2016-11-30T11:17:53.141Z,10
2016-11-30T11:19:07.960Z,10
2016-11-30T11:20:22.792Z,10
2016-11-30T11:21:51.720Z,10
2016-11-30T11:23:06.206Z,10
2016-11-30T11:24:20.891Z,10
2016-11-30T11:25:34.641Z,10
2016-11-30T11:26:48.440Z,11
2016-11-30T11:28:02.157Z,10
2016-11-30T11:29:16.135Z,11
2016-11-30T11:30:30.760Z,11
2016-11-30T11:31:45.075Z,11
2016-11-30T11:32:59.135Z,11
2016-11-30T11:34:28.176Z,11
2016-11-30T11:35:41.877Z,11
2016-11-30T11:36:56.471Z,11
2016-11-30T11:38:10.388Z,11
2016-11-30T11:39:25.279Z,11
2016-11-30T11:40:39.533Z,11
2016-11-30T11:41:53.546Z,11
2016-11-30T11:43:08.327Z,11
2016-11-30T11:44:23.786Z,11
2016-11-30T11:45:38.219Z,11
2016-11-30T11:46:52.721Z,11
2016-11-30T11:48:07.143Z,11
2016-11-30T11:49:21.725Z,11
2016-11-30T11:50:36.626Z,11
2016-11-30T11:51:52.087Z,11
2016-11-30T11:53:07.108Z,11
2016-11-30T11:54:23.362Z,11
2016-11-30T11:55:55.551Z,11
2016-11-30T11:57:11.534Z,11
2016-11-30T11:58:27.136Z,11
2016-11-30T11:59:43.182Z,11
2016-11-30T12:00:58.903Z,11
2016-11-30T12:02:14.202Z,11
2016-11-30T12:03:30.047Z,11
2016-11-30T12:04:46.346Z,11
2016-11-30T12:06:01.313Z,11
2016-11-30T12:07:15.473Z,11
2016-11-30T12:08:29.976Z,11
2016-11-30T12:09:48.216Z,11
2016-11-30T12:11:03.787Z,11
2016-11-30T12:12:33.449Z,11
2016-11-30T12:13:49.379Z,11
2016-11-30T12:15:05.658Z,11
2016-11-30T12:16:21.412Z,11
2016-11-30T12:17:35.917Z,11
2016-11-30T12:18:50.810Z,11
2016-11-30T12:20:05.285Z,11
2016-11-30T12:21:21.990Z,11
2016-11-30T12:22:36.899Z,11
2016-11-30T12:23:51.247Z,11
2016-11-30T12:25:05.925Z,11
2016-11-30T12:26:20.312Z,11
2016-11-30T12:27:36.117Z,11
2016-11-30T12:28:50.170Z,11
2016-11-30T12:30:04.309Z,11
2016-11-30T12:31:18.722Z,11
2016-11-30T12:32:35.851Z,11
2016-11-30T12:33:50.014Z,11
2016-11-30T12:35:07.523Z,11
2016-11-30T12:36:21.702Z,11
2016-11-30T12:37:36.502Z,11
2016-11-30T12:38:51.322Z,11
2016-11-30T12:40:05.522Z,11
2016-11-30T12:41:19.378Z,11
2016-11-30T12:42:33.634Z,11
2016-11-30T12:43:47.794Z,11
2016-11-30T12:45:02.600Z,11
2016-11-30T12:46:16.782Z,11
2016-11-30T12:47:31.263Z,11
2016-11-30T12:48:45.793Z,11
2016-11-30T12:49:59.483Z,11
2016-11-30T12:51:28.046Z,11
2016-11-30T12:52:43.285Z,11
2016-11-30T12:53:58.341Z,11
2016-11-30T12:55:12.442Z,11
2016-11-30T12:56:27.033Z,11
2016-11-30T12:57:56.364Z,11
2016-11-30T12:59:10.426Z,11
2016-11-30T13:00:25.050Z,11
2016-11-30T13:01:39.349Z,11
2016-11-30T13:02:53.299Z,11
2016-11-30T13:04:07.817Z,11
2016-11-30T13:05:21.883Z,11
2016-11-30T13:06:36.246Z,11
2016-11-30T13:07:50.565Z,11
2016-11-30T13:09:04.443Z,11
2016-11-30T13:10:18.483Z,11
2016-11-30T13:11:32.265Z,11
2016-11-30T13:12:46.151Z,11
2016-11-30T13:14:00.660Z,11
2016-11-30T13:15:14.798Z,12
2016-11-30T13:16:28.889Z,12
2016-11-30T13:17:43.373Z,12
2016-11-30T13:18:57.245Z,12
2016-11-30T13:20:11.056Z,12
2016-11-30T13:21:25.014Z,12
2016-11-30T13:22:38.942Z,12
2016-11-30T13:23:52.956Z,12
2016-11-30T13:25:07.371Z,12
2016-11-30T13:26:21.135Z,12
2016-11-30T13:27:35.360Z,12
2016-11-30T13:28:49.782Z,12
2016-11-30T13:30:04.023Z,12
2016-11-30T13:31:18.118Z,12
2016-11-30T13:32:32.417Z,12
2016-11-30T13:33:46.443Z,12
2016-11-30T13:35:15.862Z,12
2016-11-30T13:36:29.830Z,12
2016-11-30T13:37:43.534Z,13
2016-11-30T13:38:58.025Z,13
2016-11-30T13:40:11.784Z,13
2016-11-30T13:41:26.016Z,13
2016-11-30T13:42:39.736Z,13
2016-11-30T13:43:53.582Z,13
2016-11-30T13:45:07.892Z,13
2016-11-30T13:46:22.151Z,13
2016-11-30T13:47:36.272Z,13
2016-11-30T13:48:50.140Z,13
2016-11-30T13:50:06.320Z,13
2016-11-30T13:51:20.337Z,13
2016-11-30T13:52:34.053Z,13
2016-11-30T13:53:48.379Z,13
2016-11-30T13:55:02.426Z,13
2016-11-30T13:56:16.674Z,13
2016-11-30T13:57:30.369Z,13
2016-11-30T13:58:44.476Z,13
2016-11-30T13:59:58.822Z,13
2016-11-30T14:01:12.863Z,13
2016-11-30T14:02:27.515Z,13
2016-11-30T14:03:56.277Z,13
2016-11-30T14:05:10.319Z,13
2016-11-30T14:06:24.245Z,13
2016-11-30T14:07:37.967Z,13
2016-11-30T14:08:51.812Z,13
2016-11-30T14:10:06.270Z,13
2016-11-30T14:11:20.598Z,13
2016-11-30T14:12:34.506Z,13
2016-11-30T14:13:48.306Z,13
2016-11-30T14:15:03.100Z,13
2016-11-30T14:16:17.461Z,13
2016-11-30T14:17:31.665Z,13
2016-11-30T14:18:46.247Z,13
2016-11-30T14:20:00.116Z,13
2016-11-30T14:21:14.228Z,13
2016-11-30T14:22:28.057Z,13
2016-11-30T14:23:42.077Z,13
2016-11-30T14:24:57.358Z,13
2016-11-30T14:26:11.104Z,13
2016-11-30T14:27:26.694Z,13
2016-11-30T14:28:40.809Z,13
2016-11-30T14:29:54.612Z,13
2016-11-30T14:31:09.281Z,13
2016-11-30T14:32:23.137Z,13
2016-11-30T14:33:37.437Z,13
2016-11-30T14:34:52.174Z,13
2016-11-30T14:36:06.057Z,13
2016-11-30T14:37:21.134Z,13
2016-11-30T14:38:35.040Z,13
2016-11-30T14:39:49.148Z,13
2016-11-30T14:41:03.030Z,13
2016-11-30T14:42:17.250Z,13
2016-11-30T14:43:31.824Z,13
2016-11-30T14:44:45.895Z,13
2016-11-30T14:46:00.015Z,13
2016-11-30T14:47:13.758Z,13
2016-11-30T14:48:27.571Z,13
2016-11-30T14:49:42.434Z,13
2016-11-30T14:50:56.459Z,13
2016-11-30T14:52:10.630Z,13
2016-11-30T14:53:24.545Z,13
2016-11-30T14:54:38.233Z,13
2016-11-30T14:55:52.475Z,13
2016-11-30T14:57:06.740Z,13
2016-11-30T15:01:18.103Z,13
2016-11-30T15:02:32.259Z,13
2016-11-30T15:03:46.605Z,13
2016-11-30T15:05:00.667Z,13
2016-11-30T15:06:14.607Z,13
2016-11-30T15:07:28.763Z,13
2016-11-30T15:08:45.177Z,13
2016-11-30T15:09:58.891Z,13
2016-11-30T15:11:12.623Z,13
2016-11-30T15:12:27.242Z,13
2016-11-30T15:13:41.296Z,13
2016-11-30T15:14:55.341Z,13
2016-11-30T15:16:09.337Z,13
2016-11-30T15:17:23.582Z,13
2016-11-30T15:19:07.483Z,13
2016-11-30T15:20:21.195Z,13
2016-11-30T15:21:35.265Z,12
2016-11-30T15:22:49.758Z,12
2016-11-30T15:24:03.460Z,12
2016-11-30T15:25:17.823Z,12
2016-11-30T15:26:33.427Z,12
2016-11-30T15:27:48.416Z,12
2016-11-30T15:29:02.442Z,12
2016-11-30T15:30:16.216Z,12
2016-11-30T15:31:30.740Z,12
2016-11-30T15:32:45.054Z,12
2016-11-30T15:33:58.969Z,12
2016-11-30T15:35:13.705Z,12
2016-11-30T15:36:28.092Z,12
2016-11-30T15:37:42.866Z,12
2016-11-30T15:38:57.040Z,12
2016-11-30T15:40:11.827Z,12
2016-11-30T15:41:26.656Z,12
2016-11-30T15:42:40.706Z,12
2016-11-30T15:43:55.878Z,12
2016-11-30T15:45:09.762Z,12
2016-11-30T15:46:24.212Z,12
2016-11-30T15:47:38.812Z,12
2016-11-30T15:48:52.530Z,12
2016-11-30T15:50:06.919Z,12
2016-11-30T15:51:20.683Z,12
2016-11-30T15:52:34.975Z,12
2016-11-30T15:53:48.718Z,12
2016-11-30T15:55:02.824Z,12
2016-11-30T15:56:17.190Z,12
2016-11-30T15:57:31.064Z,12
2016-11-30T15:58:44.785Z,12
2016-11-30T15:59:58.860Z,12
2016-11-30T16:01:12.820Z,12
2016-11-30T16:02:26.871Z,12
2016-11-30T16:03:40.824Z,12
2016-11-30T16:04:55.099Z,12
2016-11-30T16:06:09.109Z,12
2016-11-30T16:07:23.150Z,12
2016-11-30T16:08:37.859Z,12
2016-11-30T16:09:51.697Z,12
2016-11-30T16:11:05.725Z,12
2016-11-30T16:12:19.816Z,12
2016-11-30T16:13:34.666Z,12
2016-11-30T16:14:49.778Z,12
2016-11-30T16:16:03.768Z,12
2016-11-30T16:17:17.662Z,12
2016-11-30T16:18:32.337Z,12
2016-11-30T16:19:46.110Z,12
2016-11-30T16:21:15.527Z,12
2016-11-30T16:22:29.729Z,12
2016-11-30T16:23:44.160Z,12
2016-11-30T16:24:58.523Z,12
2016-11-30T16:26:16.304Z,12
2016-11-30T16:27:37.630Z,12
2016-11-30T16:28:53.410Z,12
2016-11-30T16:30:07.647Z,12
2016-11-30T16:31:21.903Z,12
2016-11-30T16:32:35.915Z,12
2016-11-30T16:33:50.294Z,12
2016-11-30T16:35:05.317Z,12
2016-11-30T16:36:20.028Z,11
2016-11-30T16:37:34.789Z,12
2016-11-30T16:38:49.362Z,12
2016-11-30T16:40:04.022Z,12
2016-11-30T16:41:17.899Z,11
2016-11-30T16:42:31.903Z,11
2016-11-30T16:43:46.124Z,11
2016-11-30T16:45:00.532Z,11
2016-11-30T16:46:15.588Z,11
2016-11-30T16:47:29.548Z,11
2016-11-30T16:48:43.580Z,11
2016-11-30T16:49:57.552Z,11
2016-11-30T16:51:12.343Z,11
2016-11-30T16:52:27.140Z,11
2016-11-30T16:53:41.555Z,11
2016-11-30T16:54:55.819Z,11
2016-11-30T16:56:09.932Z,11
2016-11-30T16:57:24.766Z,11
2016-11-30T16:58:39.073Z,11
2016-11-30T16:59:52.957Z,11
2016-11-30T17:01:07.314Z,11
2016-11-30T17:02:21.243Z,11
2016-11-30T17:03:34.957Z,11
2016-11-30T17:04:50.788Z,11
2016-11-30T17:06:05.469Z,11
2016-11-30T17:07:19.814Z,11
2016-11-30T17:08:33.905Z,11
2016-11-30T17:09:48.361Z,11
2016-11-30T17:11:03.639Z,11
2016-11-30T17:12:17.603Z,11
2016-11-30T17:13:32.494Z,11
2016-11-30T17:14:47.222Z,11
2016-11-30T17:16:01.671Z,11
2016-11-30T17:17:16.486Z,11
2016-11-30T17:18:34.798Z,11
2016-11-30T17:19:48.717Z,11
2016-11-30T17:21:02.997Z,11
2016-11-30T17:22:17.057Z,11
2016-11-30T17:23:31.708Z,11
2016-11-30T17:24:46.518Z,11
2016-11-30T17:26:00.318Z,11
2016-11-30T17:27:14.299Z,11
2016-11-30T17:28:31.080Z,11
2016-11-30T17:29:45.525Z,11
2016-11-30T17:30:59.846Z,11
2016-11-30T17:32:13.543Z,11
2016-11-30T17:33:27.936Z,11
2016-11-30T17:34:41.991Z,11
2016-11-30T17:35:58.333Z,11
2016-11-30T17:37:13.129Z,11
2016-11-30T17:38:27.831Z,11
2016-11-30T17:39:41.936Z,11
2016-11-30T17:40:56.542Z,11
2016-11-30T17:42:11.433Z,11
2016-11-30T17:43:29.008Z,11
2016-11-30T17:44:47.809Z,11
2016-11-30T17:46:01.804Z,11
2016-11-30T17:47:15.842Z,11
2016-11-30T17:48:30.016Z,11
2016-11-30T17:49:44.797Z,11
2016-11-30T17:50:59.163Z,11
2016-11-30T17:52:12.964Z,11
2016-11-30T17:53:27.176Z,11
2016-11-30T17:54:41.494Z,11
2016-11-30T17:55:56.795Z,11
2016-11-30T17:57:10.935Z,11
2016-11-30T17:58:25.147Z,11
2016-11-30T17:59:39.622Z,11
2016-11-30T18:00:54.423Z,11
2016-11-30T18:02:09.246Z,11
2016-11-30T18:03:23.247Z,11
2016-11-30T18:04:37.370Z,11
2016-11-30T18:05:52.159Z,11
2016-11-30T18:07:06.448Z,11
2016-11-30T18:08:21.393Z,11
2016-11-30T18:09:35.941Z,11
2016-11-30T18:10:50.295Z,11
2016-11-30T18:12:04.711Z,11
2016-11-30T18:13:19.831Z,11
2016-11-30T18:14:34.209Z,11
2016-11-30T18:15:49.026Z,11
2016-11-30T18:17:04.027Z,11
2016-11-30T18:18:18.078Z,11
2016-11-30T18:19:33.769Z,11
2016-11-30T18:20:48.942Z,11
2016-11-30T18:22:03.355Z,11
2016-11-30T18:23:17.477Z,11
2016-11-30T18:24:31.934Z,11
2016-11-30T18:25:46.215Z,11
2016-11-30T18:27:00.807Z,11
2016-11-30T18:28:14.751Z,11
2016-11-30T18:29:28.794Z,11